createdAt,value
2023-07-17T00:00:46.873Z,25.50
2023-07-17T00:01:49.632Z,25.46
2023-07-17T00:02:51.930Z,25.45
2023-07-17T00:03:54.270Z,25.43
2023-07-17T00:04:56.473Z,25.36
2023-07-17T00:05:59.100Z,25.33
2023-07-17T00:07:01.296Z,25.31
2023-07-17T00:08:03.435Z,25.26
2023-07-17T00:09:05.665Z,25.23
2023-07-17T00:10:11.625Z,25.22
2023-07-17T00:11:14.125Z,25.18
2023-07-17T00:12:16.302Z,25.20
2023-07-17T00:13:18.493Z,25.20
2023-07-17T00:14:20.640Z,25.21
2023-07-17T00:15:22.795Z,25.20
2023-07-17T00:16:24.899Z,25.18
2023-07-17T00:17:27.032Z,25.20
2023-07-17T00:18:31.804Z,25.25
2023-07-17T00:19:33.929Z,25.30
2023-07-17T00:20:36.185Z,25.28
2023-07-17T00:21:38.306Z,25.28
2023-07-17T00:22:42.132Z,25.31
2023-07-17T00:23:44.395Z,25.28
2023-07-17T00:24:46.547Z,25.27
2023-07-17T00:25:48.628Z,25.26
2023-07-17T00:26:50.811Z,25.25
2023-07-17T00:27:53.145Z,25.22
2023-07-17T00:28:56.549Z,25.18
2023-07-17T00:29:58.688Z,25.15
2023-07-17T00:31:00.994Z,25.10
2023-07-17T00:32:03.211Z,25.12
2023-07-17T00:33:05.427Z,25.12
2023-07-17T00:34:07.621Z,25.11
2023-07-17T00:35:09.857Z,25.08
2023-07-17T00:36:11.967Z,25.06
2023-07-17T00:37:14.098Z,25.03
2023-07-17T00:38:16.249Z,25.02
2023-07-17T00:39:21.577Z,25.02
2023-07-17T00:40:23.720Z,24.99
2023-07-17T00:41:25.876Z,24.99
2023-07-17T00:42:28.045Z,24.96
2023-07-17T00:43:30.214Z,24.96
2023-07-17T00:44:32.432Z,24.97
2023-07-17T00:45:35.045Z,24.94
2023-07-17T00:46:37.463Z,24.92
2023-07-17T00:47:39.789Z,24.89
2023-07-17T00:48:42.000Z,24.89
2023-07-17T00:49:44.567Z,24.88
2023-07-17T00:50:46.704Z,24.83
2023-07-17T00:51:48.993Z,24.81
2023-07-17T00:52:51.403Z,24.84
2023-07-17T00:53:53.924Z,24.82
2023-07-17T00:54:56.389Z,24.81
2023-07-17T00:55:58.635Z,24.84
2023-07-17T00:57:03.228Z,24.82
2023-07-17T00:58:05.498Z,24.82
2023-07-17T00:59:07.688Z,24.82
2023-07-17T01:00:13.552Z,24.79
2023-07-17T01:01:16.056Z,24.78
2023-07-17T01:02:18.924Z,24.76
2023-07-17T01:03:21.361Z,24.78
2023-07-17T01:04:23.601Z,24.79
2023-07-17T01:05:25.720Z,24.78
2023-07-17T01:06:28.374Z,24.79
2023-07-17T01:07:30.556Z,24.80
2023-07-17T01:08:33.031Z,24.78
2023-07-17T01:09:36.683Z,24.77
2023-07-17T01:10:38.811Z,24.74
2023-07-17T01:11:40.972Z,24.76
2023-07-17T01:12:43.113Z,24.80
2023-07-17T01:13:50.200Z,24.80
2023-07-17T01:14:52.441Z,24.78
2023-07-17T01:15:54.566Z,24.76
2023-07-17T01:16:57.212Z,24.75
2023-07-17T01:17:59.390Z,24.75
2023-07-17T01:19:01.583Z,24.73
2023-07-17T01:20:06.587Z,24.71
2023-07-17T01:21:11.340Z,24.70
2023-07-17T01:22:19.384Z,24.70
2023-07-17T01:23:21.521Z,24.73
2023-07-17T01:24:23.769Z,24.69
2023-07-17T01:25:25.991Z,24.67
2023-07-17T01:26:28.206Z,24.67
2023-07-17T01:27:30.353Z,24.65
2023-07-17T01:28:32.507Z,24.60
2023-07-17T01:29:34.645Z,24.60
2023-07-17T01:30:36.894Z,24.56
2023-07-17T01:31:39.771Z,24.53
2023-07-17T01:32:42.111Z,24.40
2023-07-17T01:33:44.292Z,24.40
2023-07-17T01:34:46.505Z,24.35
2023-07-17T01:35:48.678Z,24.31
2023-07-17T01:36:52.734Z,24.25
2023-07-17T01:37:54.961Z,24.26
2023-07-17T01:38:57.209Z,24.23
2023-07-17T01:39:59.392Z,24.26
2023-07-17T01:41:01.561Z,24.29
2023-07-17T01:42:04.375Z,24.29
2023-07-17T01:43:06.574Z,24.26
2023-07-17T01:44:08.738Z,24.21
2023-07-17T01:45:11.060Z,24.27
2023-07-17T01:46:13.367Z,24.32
2023-07-17T01:47:15.542Z,24.27
2023-07-17T01:48:18.566Z,24.26
2023-07-17T01:49:20.692Z,24.18
2023-07-17T01:50:22.890Z,24.15
2023-07-17T01:51:25.086Z,24.12
2023-07-17T01:52:27.213Z,24.12
2023-07-17T01:53:29.323Z,24.14
2023-07-17T01:54:31.440Z,24.14
2023-07-17T01:55:33.597Z,24.13
2023-07-17T01:56:35.768Z,24.08
2023-07-17T01:57:37.865Z,24.07
2023-07-17T01:58:40.001Z,24.08
2023-07-17T01:59:42.186Z,24.09
2023-07-17T02:00:44.330Z,24.10
2023-07-17T02:01:46.646Z,24.11
2023-07-17T02:02:48.916Z,24.09
2023-07-17T02:03:51.104Z,24.19
2023-07-17T02:04:53.339Z,24.14
2023-07-17T02:05:55.760Z,24.13
2023-07-17T02:06:57.897Z,24.15
2023-07-17T02:08:00.074Z,24.18
2023-07-17T02:09:02.278Z,24.16
2023-07-17T02:10:04.978Z,24.13
2023-07-17T02:11:07.257Z,24.13
2023-07-17T02:12:10.119Z,24.13
2023-07-17T02:13:12.225Z,24.15
2023-07-17T02:14:14.327Z,24.14
2023-07-17T02:15:16.483Z,24.14
2023-07-17T02:16:18.669Z,24.09
2023-07-17T02:17:20.862Z,24.02
2023-07-17T02:18:22.996Z,24.00
2023-07-17T02:19:25.108Z,24.00
2023-07-17T02:20:27.283Z,24.01
2023-07-17T02:21:29.462Z,24.01
2023-07-17T02:22:31.643Z,24.04
2023-07-17T02:23:33.796Z,24.03
2023-07-17T02:24:35.986Z,24.03
2023-07-17T02:25:38.275Z,24.02
2023-07-17T02:26:40.417Z,23.98
2023-07-17T02:27:42.551Z,23.96
2023-07-17T02:28:44.761Z,23.92
2023-07-17T02:29:48.881Z,23.94
2023-07-17T02:30:51.039Z,23.88
2023-07-17T02:31:53.225Z,23.86
2023-07-17T02:32:55.424Z,23.82
2023-07-17T02:33:57.622Z,23.81
2023-07-17T02:34:59.977Z,23.80
2023-07-17T02:36:04.512Z,23.75
2023-07-17T02:37:12.658Z,23.74
2023-07-17T02:38:14.793Z,23.69
2023-07-17T02:39:16.949Z,23.66
2023-07-17T02:40:19.277Z,23.67
2023-07-17T02:41:21.587Z,23.70
2023-07-17T02:42:23.673Z,23.72
2023-07-17T02:43:25.815Z,23.72
2023-07-17T02:44:27.974Z,23.73
2023-07-17T02:45:30.580Z,23.72
2023-07-17T02:46:32.912Z,23.70
2023-07-17T02:47:35.495Z,23.75
2023-07-17T02:48:37.638Z,23.76
2023-07-17T02:49:39.914Z,23.77
2023-07-17T02:50:42.151Z,23.79
2023-07-17T02:51:44.282Z,23.78
2023-07-17T02:52:46.422Z,23.78
2023-07-17T02:53:48.725Z,23.78
2023-07-17T02:54:50.829Z,23.79
2023-07-17T02:55:52.981Z,23.78
2023-07-17T02:56:55.201Z,23.78
2023-07-17T02:57:57.400Z,23.79
2023-07-17T02:59:00.810Z,23.80
2023-07-17T03:00:12.115Z,23.83
2023-07-17T03:01:14.252Z,23.80
2023-07-17T03:02:17.315Z,23.79
2023-07-17T03:03:19.539Z,23.78
2023-07-17T03:04:21.740Z,23.74
2023-07-17T03:05:23.996Z,23.73
2023-07-17T03:06:26.184Z,23.72
2023-07-17T03:07:28.357Z,23.75
2023-07-17T03:08:30.479Z,23.73
2023-07-17T03:09:32.611Z,23.76
2023-07-17T03:10:34.754Z,23.72
2023-07-17T03:11:36.921Z,23.68
2023-07-17T03:12:39.489Z,23.69
2023-07-17T03:13:41.670Z,23.68
2023-07-17T03:14:43.798Z,23.68
2023-07-17T03:15:45.978Z,23.65
2023-07-17T03:16:48.116Z,23.66
2023-07-17T03:17:50.275Z,23.70
2023-07-17T03:18:52.433Z,23.70
2023-07-17T03:19:54.628Z,23.71
2023-07-17T03:20:56.816Z,23.73
2023-07-17T03:21:58.956Z,23.79
2023-07-17T03:23:01.097Z,23.76
2023-07-17T03:24:03.306Z,23.73
2023-07-17T03:25:06.437Z,23.79
2023-07-17T03:26:08.624Z,23.77
2023-07-17T03:27:11.120Z,23.75
2023-07-17T03:28:13.874Z,23.75
2023-07-17T03:29:16.086Z,23.75
2023-07-17T03:30:18.348Z,23.72
2023-07-17T03:31:20.982Z,23.74
2023-07-17T03:32:23.383Z,23.74
2023-07-17T03:33:26.435Z,23.77
2023-07-17T03:34:28.736Z,23.81
2023-07-17T03:35:30.874Z,23.80
2023-07-17T03:36:32.983Z,23.79
2023-07-17T03:37:35.165Z,23.78
2023-07-17T03:38:37.281Z,23.77
2023-07-17T03:39:39.468Z,23.80
2023-07-17T03:40:41.604Z,23.80
2023-07-17T03:41:43.690Z,23.77
2023-07-17T03:42:45.885Z,23.80
2023-07-17T03:43:48.373Z,23.79
2023-07-17T03:44:50.498Z,23.83
2023-07-17T03:45:52.714Z,23.85
2023-07-17T03:46:54.953Z,23.86
2023-07-17T03:47:57.177Z,23.91
2023-07-17T03:48:59.361Z,23.94
2023-07-17T03:50:01.549Z,23.96
2023-07-17T03:51:04.691Z,23.97
2023-07-17T03:52:07.428Z,23.97
2023-07-17T03:53:09.614Z,24.00
2023-07-17T03:54:11.757Z,24.01
2023-07-17T03:55:14.062Z,24.03
2023-07-17T03:56:16.207Z,24.02
2023-07-17T03:57:18.341Z,24.03
2023-07-17T03:58:20.514Z,24.02
2023-07-17T03:59:25.821Z,24.06
2023-07-17T04:00:27.996Z,24.05
2023-07-17T04:01:30.623Z,24.06
2023-07-17T04:02:32.874Z,24.02
2023-07-17T04:03:35.069Z,24.02
2023-07-17T04:04:37.221Z,24.06
2023-07-17T04:05:39.337Z,24.10
2023-07-17T04:06:41.568Z,24.14
2023-07-17T04:07:43.711Z,24.10
2023-07-17T04:08:45.872Z,24.05
2023-07-17T04:09:47.976Z,24.09
2023-07-17T04:10:50.348Z,24.13
2023-07-17T04:11:52.495Z,24.16
2023-07-17T04:12:54.637Z,24.16
2023-07-17T04:13:56.924Z,24.18
2023-07-17T04:14:59.057Z,24.21
2023-07-17T04:16:02.152Z,24.25
2023-07-17T04:17:05.238Z,24.26
2023-07-17T04:18:07.417Z,24.29
2023-07-17T04:19:09.656Z,24.31
2023-07-17T04:20:12.466Z,24.37
2023-07-17T04:21:14.647Z,24.36
2023-07-17T04:22:16.753Z,24.42
2023-07-17T04:23:18.879Z,24.48
2023-07-17T04:24:21.060Z,24.54
2023-07-17T04:25:23.318Z,24.56
2023-07-17T04:26:25.501Z,24.60
2023-07-17T04:27:27.668Z,24.65
2023-07-17T04:28:29.857Z,24.65
2023-07-17T04:29:32.013Z,24.67
2023-07-17T04:30:37.020Z,24.71
2023-07-17T04:31:39.229Z,24.74
2023-07-17T04:32:41.431Z,24.76
2023-07-17T04:33:43.637Z,24.78
2023-07-17T04:34:45.936Z,24.83
2023-07-17T04:35:48.098Z,24.88
2023-07-17T04:36:50.300Z,24.87
2023-07-17T04:37:55.532Z,24.89
2023-07-17T04:38:57.711Z,24.95
2023-07-17T04:39:59.894Z,24.97
2023-07-17T04:41:01.986Z,25.00
2023-07-17T04:42:04.412Z,25.05
2023-07-17T04:43:06.566Z,25.08
2023-07-17T04:44:08.779Z,25.11
2023-07-17T04:45:12.712Z,25.14
2023-07-17T04:46:15.464Z,25.14
2023-07-17T04:47:17.673Z,25.15
2023-07-17T04:48:19.812Z,25.16
2023-07-17T04:49:22.005Z,25.20
2023-07-17T04:50:26.318Z,25.24
2023-07-17T04:51:29.318Z,25.27
2023-07-17T04:52:31.568Z,25.30
2023-07-17T04:53:35.092Z,25.33
2023-07-17T04:54:37.301Z,25.33
2023-07-17T04:55:39.478Z,25.37
2023-07-17T04:56:41.843Z,25.36
2023-07-17T04:57:43.998Z,25.38
2023-07-17T04:58:46.131Z,25.44
2023-07-17T04:59:48.661Z,25.49
2023-07-17T05:00:51.103Z,25.49
2023-07-17T05:01:53.321Z,25.55
2023-07-17T05:02:55.607Z,25.55
2023-07-17T05:03:57.944Z,25.50
2023-07-17T05:05:00.097Z,25.50
2023-07-17T05:06:02.224Z,25.55
2023-07-17T05:07:04.528Z,25.58
2023-07-17T05:08:07.072Z,25.63
2023-07-17T05:09:09.282Z,25.65
2023-07-17T05:10:12.278Z,25.67
2023-07-17T05:11:14.482Z,25.75
2023-07-17T05:12:16.637Z,25.76
2023-07-17T05:13:18.810Z,25.80
2023-07-17T05:14:20.992Z,25.83
2023-07-17T05:15:23.424Z,25.88
2023-07-17T05:16:25.644Z,25.90
2023-07-17T05:17:27.871Z,25.92
2023-07-17T05:18:30.052Z,25.98
2023-07-17T05:19:32.216Z,26.03
2023-07-17T05:20:34.375Z,26.05
2023-07-17T05:21:36.505Z,26.04
2023-07-17T05:22:38.785Z,26.07
2023-07-17T05:23:40.932Z,26.11
2023-07-17T05:24:43.067Z,26.15
2023-07-17T05:25:56.385Z,26.21
2023-07-17T05:26:58.601Z,26.23
2023-07-17T05:28:00.763Z,26.27
2023-07-17T05:29:03.547Z,26.31
2023-07-17T05:30:07.679Z,26.38
2023-07-17T05:31:10.916Z,26.42
2023-07-17T05:32:13.860Z,26.46
2023-07-17T05:33:16.020Z,26.49
2023-07-17T05:34:18.671Z,26.52
2023-07-17T05:35:20.954Z,26.54
2023-07-17T05:36:23.722Z,26.57
2023-07-17T05:37:25.875Z,26.61
2023-07-17T05:38:28.034Z,26.70
2023-07-17T05:39:30.333Z,26.69
2023-07-17T05:40:36.246Z,26.70
2023-07-17T05:41:38.380Z,26.69
2023-07-17T05:42:40.622Z,26.65
2023-07-17T05:43:42.767Z,26.69
2023-07-17T05:44:44.891Z,26.72
2023-07-17T05:45:47.022Z,26.78
2023-07-17T05:46:49.280Z,26.81
2023-07-17T05:47:51.568Z,26.82
2023-07-17T05:48:53.762Z,26.86
2023-07-17T05:49:55.850Z,26.92
2023-07-17T05:50:57.970Z,26.98
2023-07-17T05:52:00.674Z,27.02
2023-07-17T05:53:04.414Z,27.07
2023-07-17T05:54:07.313Z,27.12
2023-07-17T05:55:09.597Z,27.14
2023-07-17T05:56:12.851Z,27.15
2023-07-17T05:57:14.986Z,27.20
2023-07-17T05:58:17.173Z,27.20
2023-07-17T05:59:19.749Z,27.21
2023-07-17T06:00:21.959Z,27.23
2023-07-17T06:01:24.277Z,27.26
2023-07-17T06:02:26.517Z,27.29
2023-07-17T06:03:28.873Z,27.34
2023-07-17T06:04:31.164Z,27.41
2023-07-17T06:05:39.536Z,27.41
2023-07-17T06:06:41.674Z,27.37
2023-07-17T06:07:43.833Z,27.43
2023-07-17T06:08:46.696Z,27.50
2023-07-17T06:09:48.822Z,27.53
2023-07-17T06:10:51.028Z,27.60
2023-07-17T06:11:53.144Z,27.67
2023-07-17T06:12:55.300Z,27.72
2023-07-17T06:13:57.518Z,27.79
2023-07-17T06:14:59.696Z,27.85
2023-07-17T06:16:01.926Z,27.90
2023-07-17T06:17:04.317Z,27.94
2023-07-17T06:18:06.533Z,28.00
2023-07-17T06:19:08.787Z,28.03
2023-07-17T06:20:11.157Z,28.09
2023-07-17T06:21:13.316Z,28.13
2023-07-17T06:22:15.552Z,28.20
2023-07-17T06:23:17.887Z,28.23
2023-07-17T06:24:20.175Z,28.25
2023-07-17T06:25:22.320Z,28.30
2023-07-17T06:26:24.479Z,28.31
2023-07-17T06:27:26.724Z,28.37
2023-07-17T06:28:30.581Z,28.47
2023-07-17T06:29:32.815Z,28.52
2023-07-17T06:30:35.095Z,28.56
2023-07-17T06:31:37.580Z,28.56
2023-07-17T06:32:39.857Z,28.60
2023-07-17T06:33:42.138Z,28.61
2023-07-17T06:34:44.283Z,28.56
2023-07-17T06:35:46.703Z,28.52
2023-07-17T06:36:51.343Z,28.49
2023-07-17T06:37:53.509Z,28.46
2023-07-17T06:38:55.636Z,28.51
2023-07-17T06:39:57.842Z,28.61
2023-07-17T06:41:00.152Z,28.68
2023-07-17T06:42:02.427Z,28.71
2023-07-17T06:43:04.677Z,28.69
2023-07-17T06:44:06.866Z,28.74
2023-07-17T06:45:09.260Z,28.79
2023-07-17T06:46:12.088Z,28.85
2023-07-17T06:47:25.078Z,28.88
2023-07-17T06:48:32.288Z,28.84
2023-07-17T06:49:34.452Z,28.89
2023-07-17T06:50:36.700Z,28.97
2023-07-17T06:51:38.860Z,29.07
2023-07-17T06:52:42.826Z,29.04
2023-07-17T06:53:45.220Z,29.15
2023-07-17T06:55:02.269Z,29.15
2023-07-17T06:56:06.644Z,29.20
2023-07-17T06:57:08.886Z,29.29
2023-07-17T06:58:11.102Z,29.36
2023-07-17T06:59:13.235Z,29.45
2023-07-17T07:00:15.769Z,29.44
2023-07-17T07:01:17.924Z,29.48
2023-07-17T07:02:20.037Z,29.53
2023-07-17T07:03:22.289Z,29.60
2023-07-17T07:04:24.780Z,29.62
2023-07-17T07:05:27.017Z,29.67
2023-07-17T07:06:29.197Z,29.69
2023-07-17T07:07:31.359Z,29.70
2023-07-17T07:08:33.575Z,29.72
2023-07-17T07:09:36.222Z,29.79
2023-07-17T07:10:38.460Z,29.77
2023-07-17T07:11:40.543Z,29.87
2023-07-17T07:12:42.666Z,29.86
2023-07-17T07:13:46.937Z,29.99
2023-07-17T07:14:49.455Z,30.07
2023-07-17T07:15:52.155Z,30.11
2023-07-17T07:16:54.393Z,30.18
2023-07-17T07:17:56.746Z,30.26
2023-07-17T07:18:58.917Z,30.30
2023-07-17T07:20:01.020Z,30.30
2023-07-17T07:21:03.256Z,30.35
2023-07-17T07:22:05.705Z,30.37
2023-07-17T07:23:07.868Z,30.37
2023-07-17T07:24:10.176Z,30.39
2023-07-17T07:25:12.296Z,30.43
2023-07-17T07:26:14.500Z,30.49
2023-07-17T07:27:16.739Z,30.55
2023-07-17T07:28:20.062Z,30.60
2023-07-17T07:29:22.197Z,30.55
2023-07-17T07:30:24.348Z,30.44
2023-07-17T07:31:26.509Z,30.58
2023-07-17T07:32:28.718Z,30.65
2023-07-17T07:33:31.038Z,30.70
2023-07-17T07:34:33.205Z,30.65
2023-07-17T07:35:35.321Z,30.60
2023-07-17T07:36:37.494Z,30.55
2023-07-17T07:37:40.979Z,30.62
2023-07-17T07:38:43.162Z,30.62
2023-07-17T07:39:45.325Z,30.73
2023-07-17T07:40:47.520Z,30.84
2023-07-17T07:41:49.684Z,30.87
2023-07-17T07:42:51.836Z,30.98
2023-07-17T07:43:54.002Z,31.00
2023-07-17T07:44:56.395Z,31.04
2023-07-17T07:45:58.704Z,31.16
2023-07-17T07:47:00.859Z,31.07
2023-07-17T07:48:03.009Z,30.99
2023-07-17T07:49:05.128Z,31.00
2023-07-17T07:50:08.556Z,31.05
2023-07-17T07:51:10.753Z,31.18
2023-07-17T07:52:12.874Z,31.20
2023-07-17T07:53:15.015Z,31.28
2023-07-17T07:54:21.951Z,31.37
2023-07-17T07:55:24.703Z,31.33
2023-07-17T07:56:26.930Z,31.42
2023-07-17T07:57:29.032Z,31.46
2023-07-17T07:58:31.185Z,31.54
2023-07-17T07:59:33.911Z,31.62
2023-07-17T08:00:37.311Z,31.73
2023-07-17T08:01:39.553Z,31.80
2023-07-17T08:02:42.080Z,31.89
2023-07-17T08:03:44.995Z,31.97
2023-07-17T08:04:47.196Z,32.03
2023-07-17T08:05:49.364Z,32.09
2023-07-17T08:06:51.544Z,32.10
2023-07-17T08:07:53.714Z,32.15
2023-07-17T08:08:55.882Z,32.17
2023-07-17T08:09:58.081Z,32.22
2023-07-17T08:11:00.233Z,32.30
2023-07-17T08:12:02.390Z,32.37
2023-07-17T08:13:05.065Z,32.39
2023-07-17T08:14:07.208Z,32.35
2023-07-17T08:15:09.930Z,32.29
2023-07-17T08:16:12.128Z,32.24
2023-07-17T08:17:14.310Z,32.22
2023-07-17T08:18:17.523Z,32.18
2023-07-17T08:19:20.487Z,32.22
2023-07-17T08:20:22.705Z,32.32
2023-07-17T08:21:24.886Z,32.40
2023-07-17T08:22:27.093Z,32.46
2023-07-17T08:23:29.364Z,32.48
2023-07-17T08:24:31.531Z,32.56
2023-07-17T08:25:33.874Z,32.48
2023-07-17T08:26:36.098Z,32.52
2023-07-17T08:27:38.229Z,32.64
2023-07-17T08:28:40.350Z,32.63
2023-07-17T08:29:42.526Z,32.75
2023-07-17T08:30:44.637Z,32.75
2023-07-17T08:31:47.602Z,32.87
2023-07-17T08:32:49.935Z,32.95
2023-07-17T08:33:52.056Z,33.01
2023-07-17T08:34:54.187Z,33.04
2023-07-17T08:35:56.398Z,32.98
2023-07-17T08:36:58.702Z,32.91
2023-07-17T08:38:00.851Z,32.75
2023-07-17T08:39:05.772Z,32.79
2023-07-17T08:40:09.836Z,32.90
2023-07-17T08:41:12.036Z,32.98
2023-07-17T08:42:14.348Z,32.93
2023-07-17T08:43:16.703Z,32.93
2023-07-17T08:44:19.468Z,33.08
2023-07-17T08:45:23.362Z,33.16
2023-07-17T08:46:25.599Z,33.28
2023-07-17T08:47:27.967Z,33.46
2023-07-17T08:48:30.368Z,33.20
2023-07-17T08:49:33.894Z,33.14
2023-07-17T08:50:36.295Z,33.18
2023-07-17T08:51:38.486Z,33.36
2023-07-17T08:52:40.874Z,33.36
2023-07-17T08:53:45.321Z,33.49
2023-07-17T08:54:47.517Z,33.57
2023-07-17T08:55:52.119Z,33.57
2023-07-17T08:56:54.407Z,33.69
2023-07-17T08:57:57.239Z,33.76
2023-07-17T08:59:00.420Z,33.90
2023-07-17T09:00:05.166Z,34.00
2023-07-17T09:01:08.452Z,34.06
2023-07-17T09:02:10.665Z,34.08
2023-07-17T09:03:13.131Z,34.12
2023-07-17T09:04:15.900Z,34.15
2023-07-17T09:05:18.393Z,34.07
2023-07-17T09:06:25.225Z,34.03
2023-07-17T09:07:27.349Z,34.02
2023-07-17T09:08:29.560Z,34.06
2023-07-17T09:09:31.750Z,34.19
2023-07-17T09:10:36.991Z,34.12
2023-07-17T09:11:39.243Z,33.92
2023-07-17T09:12:44.988Z,33.78
2023-07-17T09:13:48.093Z,33.72
2023-07-17T09:14:50.275Z,33.81
2023-07-17T09:15:52.415Z,34.01
2023-07-17T09:17:05.364Z,33.82
2023-07-17T09:18:07.781Z,33.99
2023-07-17T09:19:09.990Z,34.05
2023-07-17T09:20:14.383Z,33.97
2023-07-17T09:21:18.744Z,33.92
2023-07-17T09:22:21.278Z,33.99
2023-07-17T09:23:24.807Z,34.02
2023-07-17T09:24:28.588Z,33.98
2023-07-17T09:25:31.865Z,33.97
2023-07-17T09:26:34.026Z,34.20
2023-07-17T09:27:49.117Z,34.45
2023-07-17T09:28:56.776Z,34.79
2023-07-17T09:29:58.979Z,35.16
2023-07-17T09:31:04.928Z,35.51
2023-07-17T09:32:20.742Z,35.23
2023-07-17T09:33:25.740Z,35.65
2023-07-17T09:34:27.926Z,35.76
2023-07-17T09:35:30.196Z,35.93
2023-07-17T09:36:32.449Z,35.99
2023-07-17T09:37:36.309Z,36.08
2023-07-17T09:38:38.470Z,36.34
2023-07-17T09:39:40.690Z,36.20
2023-07-17T09:40:42.897Z,36.07
2023-07-17T09:41:45.032Z,36.35
2023-07-17T09:42:53.238Z,36.67
2023-07-17T09:44:08.329Z,37.14
2023-07-17T09:45:14.112Z,37.46
2023-07-17T09:46:16.413Z,37.78
2023-07-17T09:47:19.966Z,37.88
2023-07-17T09:48:22.097Z,38.16
2023-07-17T09:49:24.430Z,37.92
2023-07-17T09:50:28.052Z,38.09
2023-07-17T09:51:32.098Z,38.05
2023-07-17T09:52:35.436Z,37.96
2023-07-17T09:53:38.111Z,37.91
2023-07-17T09:54:41.829Z,37.61
2023-07-17T09:55:44.417Z,37.72
2023-07-17T09:56:48.128Z,37.26
2023-07-17T09:57:52.945Z,37.61
2023-07-17T09:58:59.290Z,36.70
2023-07-17T10:00:12.619Z,37.34
2023-07-17T10:01:19.866Z,37.69
2023-07-17T10:02:23.697Z,37.64
2023-07-17T10:03:26.605Z,37.50
2023-07-17T10:04:39.870Z,37.22
2023-07-17T10:05:42.746Z,36.90
2023-07-17T10:06:47.892Z,36.86
2023-07-17T10:07:51.879Z,36.99
2023-07-17T10:08:54.333Z,37.21
2023-07-17T10:09:58.420Z,37.48
2023-07-17T10:11:00.557Z,36.65
2023-07-17T10:12:03.406Z,36.76
2023-07-17T10:13:09.295Z,37.40
2023-07-17T10:14:12.623Z,37.76
2023-07-17T10:15:16.194Z,37.79
2023-07-17T10:16:19.359Z,38.01
2023-07-17T10:17:35.234Z,37.81
2023-07-17T10:18:56.159Z,38.31
2023-07-17T10:20:00.164Z,38.05
2023-07-17T10:21:05.475Z,38.12
2023-07-17T10:22:14.710Z,37.19
2023-07-17T10:23:25.235Z,37.41
2023-07-17T10:24:27.289Z,37.48
2023-07-17T10:25:29.724Z,37.52
2023-07-17T10:26:32.027Z,37.93
2023-07-17T10:27:41.491Z,38.50
2023-07-17T10:28:48.641Z,38.91
2023-07-17T10:29:52.194Z,39.23
2023-07-17T10:30:54.394Z,39.72
2023-07-17T10:31:59.157Z,39.44
2023-07-17T10:33:07.140Z,39.33
2023-07-17T10:34:10.320Z,39.59
2023-07-17T10:35:20.821Z,39.90
2023-07-17T10:36:45.804Z,40.11
2023-07-17T10:37:47.979Z,40.50
2023-07-17T10:38:52.387Z,40.70
2023-07-17T10:40:07.776Z,40.77
2023-07-17T10:41:15.745Z,41.04
2023-07-17T10:42:17.908Z,41.16
2023-07-17T10:43:20.784Z,41.38
2023-07-17T10:44:23.444Z,41.57
2023-07-17T10:45:35.080Z,41.14
2023-07-17T10:46:37.698Z,41.48
2023-07-17T10:47:39.882Z,41.61
2023-07-17T10:48:42.030Z,40.92
2023-07-17T10:49:44.386Z,41.57
2023-07-17T10:50:54.081Z,41.54
2023-07-17T10:51:56.461Z,40.76
2023-07-17T10:53:05.821Z,40.83
2023-07-17T10:54:08.067Z,41.52
2023-07-17T10:55:10.430Z,41.22
2023-07-17T10:56:12.616Z,41.38
2023-07-17T10:57:14.763Z,41.09
2023-07-17T10:58:19.006Z,41.00
2023-07-17T10:59:21.437Z,40.54
2023-07-17T11:00:23.737Z,39.31
2023-07-17T11:01:26.204Z,38.97
2023-07-17T11:02:28.426Z,39.18
2023-07-17T11:03:30.643Z,39.49
2023-07-17T11:04:34.901Z,39.57
2023-07-17T11:05:38.816Z,39.97
2023-07-17T11:06:40.993Z,40.24
2023-07-17T11:07:43.806Z,40.06
2023-07-17T11:08:52.292Z,40.60
2023-07-17T11:09:54.419Z,40.51
2023-07-17T11:10:56.617Z,40.46
2023-07-17T11:12:01.104Z,40.94
2023-07-17T11:13:04.561Z,40.27
2023-07-17T11:14:06.820Z,40.60
2023-07-17T11:15:18.513Z,41.35
2023-07-17T11:16:22.589Z,41.04
2023-07-17T11:17:25.198Z,41.51
2023-07-17T11:18:27.655Z,41.24
2023-07-17T11:19:30.004Z,41.08
2023-07-17T11:20:33.322Z,41.16
2023-07-17T11:21:35.475Z,41.11
2023-07-17T11:22:44.038Z,40.97
2023-07-17T11:23:50.955Z,40.99
2023-07-17T11:24:53.298Z,41.01
2023-07-17T11:25:55.440Z,40.48
2023-07-17T11:26:59.469Z,40.82
2023-07-17T11:28:02.300Z,40.66
2023-07-17T11:29:04.774Z,39.80
2023-07-17T11:30:21.096Z,39.48
2023-07-17T11:31:29.557Z,39.67
2023-07-17T11:32:32.429Z,39.85
2023-07-17T11:33:34.673Z,40.26
2023-07-17T11:34:37.718Z,40.37
2023-07-17T11:35:40.176Z,40.57
2023-07-17T11:36:47.278Z,40.21
2023-07-17T11:37:49.628Z,40.65
2023-07-17T11:38:51.987Z,40.70
2023-07-17T11:39:54.500Z,39.97
2023-07-17T11:41:00.802Z,40.00
2023-07-17T11:42:03.031Z,40.20
2023-07-17T11:43:05.641Z,40.16
2023-07-17T11:44:09.001Z,39.89
2023-07-17T11:45:11.177Z,40.20
2023-07-17T11:46:13.519Z,40.85
2023-07-17T11:47:15.732Z,40.97
2023-07-17T11:48:18.773Z,40.85
2023-07-17T11:49:20.924Z,39.98
2023-07-17T11:50:27.550Z,40.32
2023-07-17T11:51:29.670Z,40.75
2023-07-17T11:52:32.787Z,40.76
2023-07-17T11:53:37.222Z,41.11
2023-07-17T11:54:39.284Z,40.85
2023-07-17T11:55:42.375Z,39.18
2023-07-17T11:56:45.970Z,39.21
2023-07-17T11:58:02.964Z,39.29
2023-07-17T11:59:06.781Z,40.13
2023-07-17T12:00:10.676Z,40.41
2023-07-17T12:01:12.887Z,40.74
2023-07-17T12:02:15.040Z,40.65
2023-07-17T12:03:17.607Z,40.99
2023-07-17T12:04:24.398Z,40.59
2023-07-17T12:05:26.701Z,41.09
2023-07-17T12:06:28.830Z,39.81
2023-07-17T12:07:31.036Z,39.38
2023-07-17T12:08:33.222Z,39.61
2023-07-17T12:09:35.735Z,40.10
2023-07-17T12:10:37.986Z,39.88
2023-07-17T12:11:44.325Z,39.63
2023-07-17T12:12:46.441Z,40.17
2023-07-17T12:13:48.624Z,40.30
2023-07-17T12:14:50.724Z,40.15
2023-07-17T12:15:53.035Z,40.40
2023-07-17T12:16:55.242Z,40.68
2023-07-17T12:17:57.635Z,40.44
2023-07-17T12:18:59.781Z,39.38
2023-07-17T12:20:02.183Z,38.91
2023-07-17T12:21:04.319Z,39.07
2023-07-17T12:23:11.648Z,38.66
2023-07-17T12:24:16.825Z,38.05
2023-07-17T12:25:19.237Z,37.64
2023-07-17T12:26:21.472Z,37.65
2023-07-17T12:27:25.296Z,37.22
2023-07-17T12:28:32.244Z,36.71
2023-07-17T12:29:34.616Z,36.70
2023-07-17T12:30:36.842Z,36.46
2023-07-17T12:31:39.210Z,36.97
2023-07-17T12:32:42.526Z,36.98
2023-07-17T12:33:45.505Z,36.88
2023-07-17T12:34:50.645Z,36.99
2023-07-17T12:35:53.795Z,38.06
2023-07-17T12:36:56.235Z,39.12
2023-07-17T12:37:58.565Z,39.64
2023-07-17T12:39:15.029Z,39.94
2023-07-17T12:40:17.296Z,39.73
2023-07-17T12:41:20.739Z,40.36
2023-07-17T12:42:23.326Z,40.88
2023-07-17T12:43:25.524Z,41.09
2023-07-17T12:44:27.665Z,41.23
2023-07-17T12:45:32.252Z,40.87
2023-07-17T12:46:34.931Z,40.43
2023-07-17T12:47:38.061Z,40.52
2023-07-17T12:48:42.091Z,39.41
2023-07-17T12:49:44.318Z,38.26
2023-07-17T12:50:46.466Z,37.18
2023-07-17T12:51:48.579Z,36.91
2023-07-17T12:52:50.673Z,36.89
2023-07-17T12:53:52.865Z,37.10
2023-07-17T12:54:55.188Z,37.70
2023-07-17T12:56:14.541Z,38.54
2023-07-17T12:57:18.803Z,38.81
2023-07-17T12:58:20.973Z,38.93
2023-07-17T12:59:23.974Z,38.52
2023-07-17T13:00:26.108Z,38.35
2023-07-17T13:01:28.440Z,38.35
2023-07-17T13:02:30.988Z,37.93
2023-07-17T13:03:33.264Z,37.21
2023-07-17T13:04:36.625Z,36.84
2023-07-17T13:05:39.772Z,36.66
2023-07-17T13:06:41.928Z,36.51
2023-07-17T13:07:44.075Z,36.43
2023-07-17T13:08:46.462Z,36.34
2023-07-17T13:09:48.613Z,36.26
2023-07-17T13:10:51.140Z,36.17
2023-07-17T13:11:54.288Z,36.26
2023-07-17T13:12:56.409Z,36.26
2023-07-17T13:13:58.532Z,36.26
2023-07-17T13:15:00.699Z,36.13
2023-07-17T13:16:03.055Z,36.08
2023-07-17T13:17:05.615Z,36.04
2023-07-17T13:18:07.893Z,36.04
2023-07-17T13:19:10.149Z,36.04
2023-07-17T13:20:12.299Z,36.09
2023-07-17T13:21:15.592Z,36.07
2023-07-17T13:22:17.981Z,36.09
2023-07-17T13:23:20.218Z,36.32
2023-07-17T13:24:22.474Z,36.48
2023-07-17T13:25:24.624Z,36.65
2023-07-17T13:26:30.076Z,36.72
2023-07-17T13:27:32.190Z,36.83
2023-07-17T13:28:35.473Z,36.91
2023-07-17T13:29:37.765Z,36.81
2023-07-17T13:30:43.402Z,36.78
2023-07-17T13:31:51.794Z,36.58
2023-07-17T13:32:54.025Z,36.41
2023-07-17T13:33:56.150Z,36.14